createdAt,value
2022-11-08T00:00:41.421Z,9.16
2022-11-08T00:03:08.938Z,9.17
2022-11-08T00:05:54.969Z,9.20
2022-11-08T00:08:41.165Z,9.20
2022-11-08T00:11:27.390Z,9.20
2022-11-08T00:13:58.577Z,9.14
2022-11-08T00:16:27.350Z,9.13
2022-11-08T00:18:54.731Z,9.08
2022-11-08T00:21:22.200Z,9.10
2022-11-08T00:23:49.770Z,9.09
2022-11-08T00:26:17.213Z,9.11
2022-11-08T00:28:44.763Z,9.17
2022-11-08T00:31:12.192Z,9.23
2022-11-08T00:33:39.711Z,9.23
2022-11-08T00:36:07.332Z,9.29
2022-11-08T00:38:34.913Z,9.35
2022-11-08T00:41:02.348Z,9.40
2022-11-08T00:43:29.846Z,9.47
2022-11-08T00:45:57.302Z,9.48
2022-11-08T00:48:24.770Z,9.54
2022-11-08T00:50:52.322Z,9.50
2022-11-08T00:53:19.727Z,9.56
2022-11-08T00:55:47.222Z,9.58
2022-11-08T00:58:14.809Z,9.59
2022-11-08T01:00:42.603Z,9.61
2022-11-08T01:03:19.201Z,9.67
2022-11-08T01:05:48.091Z,9.67
2022-11-08T01:08:16.040Z,9.71
2022-11-08T01:10:46.003Z,9.69
2022-11-08T01:13:13.772Z,9.65
2022-11-08T01:15:43.674Z,9.68
2022-11-08T01:18:14.036Z,9.70
2022-11-08T01:20:43.340Z,9.71
2022-11-08T01:23:11.539Z,9.64
2022-11-08T01:25:40.758Z,9.59
2022-11-08T01:28:08.770Z,9.61
2022-11-08T01:30:38.010Z,9.62
2022-11-08T01:33:06.428Z,9.59
2022-11-08T01:35:35.705Z,9.56
2022-11-08T01:38:04.846Z,9.49
2022-11-08T01:40:33.121Z,9.49
2022-11-08T01:43:00.633Z,9.47
2022-11-08T01:46:05.473Z,9.41
2022-11-08T01:48:32.994Z,9.30
2022-11-08T01:51:00.730Z,9.15
2022-11-08T01:53:29.171Z,9.16
2022-11-08T01:55:57.190Z,9.11
2022-11-08T01:58:30.572Z,9.08
2022-11-08T02:01:01.826Z,9.08
2022-11-08T02:03:33.069Z,9.08
2022-11-08T02:06:01.888Z,9.10
2022-11-08T02:08:37.322Z,9.09
2022-11-08T02:11:06.846Z,9.15
2022-11-08T02:13:36.089Z,9.19
2022-11-08T02:16:07.011Z,9.19
2022-11-08T02:18:34.612Z,9.20
2022-11-08T02:21:19.717Z,9.22
2022-11-08T02:23:47.901Z,9.26
2022-11-08T02:26:17.271Z,9.26
2022-11-08T02:28:47.601Z,9.27
2022-11-08T02:31:17.791Z,9.28
2022-11-08T02:33:46.956Z,9.25
2022-11-08T02:36:23.011Z,9.23
2022-11-08T02:38:54.568Z,9.19
2022-11-08T02:41:22.097Z,9.11
2022-11-08T02:43:49.541Z,9.08
2022-11-08T02:46:17.112Z,9.02
2022-11-08T02:48:44.544Z,8.94
2022-11-08T02:51:11.980Z,8.92
2022-11-08T02:53:39.460Z,8.85
2022-11-08T02:56:07.121Z,8.81
2022-11-08T02:58:34.593Z,8.84
2022-11-08T03:01:02.118Z,8.90
2022-11-08T03:03:29.727Z,8.92
2022-11-08T03:05:57.477Z,8.85
2022-11-08T03:08:24.977Z,8.72
2022-11-08T03:10:52.372Z,8.66
2022-11-08T03:13:19.922Z,8.55
2022-11-08T03:15:47.591Z,8.44
2022-11-08T03:18:15.305Z,8.45
2022-11-08T03:20:43.152Z,8.40
2022-11-08T03:23:10.787Z,8.46
2022-11-08T03:25:38.319Z,8.45
2022-11-08T03:28:07.205Z,8.55
2022-11-08T03:30:36.513Z,8.45
2022-11-08T03:33:04.811Z,8.37
2022-11-08T03:35:35.202Z,8.36
2022-11-08T03:38:02.931Z,8.32
2022-11-08T03:40:30.380Z,8.29
2022-11-08T03:42:57.940Z,8.30
2022-11-08T03:45:25.608Z,8.28
2022-11-08T03:47:53.562Z,8.29
2022-11-08T03:50:21.103Z,8.28
2022-11-08T03:52:54.108Z,8.18
2022-11-08T03:55:24.266Z,8.14
2022-11-08T03:57:51.879Z,8.09
2022-11-08T04:00:27.789Z,8.08
2022-11-08T04:03:01.176Z,8.10
2022-11-08T04:05:29.231Z,8.11
2022-11-08T04:07:56.656Z,8.13
2022-11-08T04:10:24.282Z,8.15
2022-11-08T04:13:10.118Z,8.11
2022-11-08T04:15:37.866Z,7.99
2022-11-08T04:18:23.722Z,8.02
2022-11-08T04:21:09.750Z,7.94
2022-11-08T04:23:37.641Z,7.92
2022-11-08T04:26:07.815Z,7.93
2022-11-08T04:28:37.042Z,7.89
2022-11-08T04:31:13.602Z,7.90
2022-11-08T04:33:41.842Z,7.91
2022-11-08T04:36:12.159Z,7.95
2022-11-08T04:38:39.656Z,7.99
2022-11-08T04:41:12.428Z,8.01
2022-11-08T04:43:40.416Z,8.02
2022-11-08T04:46:13.009Z,8.00
2022-11-08T04:48:41.079Z,8.00
2022-11-08T04:51:15.876Z,8.00
2022-11-08T04:53:43.544Z,7.97
2022-11-08T04:56:14.340Z,7.99
2022-11-08T04:58:47.133Z,8.00
2022-11-08T05:01:17.138Z,7.98
2022-11-08T05:03:49.501Z,7.97
2022-11-08T05:06:24.195Z,7.94
2022-11-08T05:08:52.301Z,7.94
2022-11-08T05:11:22.135Z,7.93
2022-11-08T05:13:51.060Z,7.91
2022-11-08T05:16:21.711Z,7.92
2022-11-08T05:18:49.826Z,7.90
2022-11-08T05:21:38.491Z,7.96
2022-11-08T05:24:07.500Z,7.92
2022-11-08T05:26:37.021Z,7.96
2022-11-08T05:29:05.370Z,7.96
2022-11-08T05:31:33.048Z,7.97
2022-11-08T05:34:01.000Z,7.94
2022-11-08T05:36:29.025Z,7.96
2022-11-08T05:38:56.892Z,7.89
2022-11-08T05:41:26.108Z,7.81
2022-11-08T05:43:56.040Z,7.76
2022-11-08T05:46:24.320Z,7.69
2022-11-08T05:48:52.591Z,7.67
2022-11-08T05:51:20.851Z,7.68
2022-11-08T05:53:48.918Z,7.72
2022-11-08T05:56:17.808Z,7.59
2022-11-08T05:58:45.720Z,7.55
2022-11-08T06:01:15.801Z,7.50
2022-11-08T06:03:43.761Z,7.48
2022-11-08T06:06:24.481Z,7.50
2022-11-08T06:08:52.726Z,7.51
2022-11-08T06:11:24.056Z,7.62
2022-11-08T06:13:52.882Z,7.70
2022-11-08T06:16:22.222Z,7.86
2022-11-08T06:18:49.857Z,8.07
2022-11-08T06:21:19.871Z,8.38
2022-11-08T06:23:48.406Z,8.70
2022-11-08T06:26:15.755Z,9.04
2022-11-08T06:28:43.223Z,9.28
2022-11-08T06:31:10.743Z,9.24
2022-11-08T06:33:38.211Z,9.33
2022-11-08T06:36:07.109Z,9.26
2022-11-08T06:38:34.625Z,9.26
2022-11-08T06:41:02.758Z,9.28
2022-11-08T06:43:30.693Z,9.34
2022-11-08T06:46:04.380Z,9.76
2022-11-08T06:48:35.711Z,10.01
2022-11-08T06:51:04.563Z,10.36
2022-11-08T06:53:32.695Z,10.70
2022-11-08T06:56:01.103Z,10.78
2022-11-08T06:58:29.122Z,11.08
2022-11-08T07:00:56.724Z,11.43
2022-11-08T07:03:24.212Z,11.72
2022-11-08T07:05:51.755Z,11.71
2022-11-08T07:08:23.735Z,11.47
2022-11-08T07:10:51.898Z,11.42
2022-11-08T07:13:19.982Z,11.52
2022-11-08T07:15:48.189Z,11.38
2022-11-08T07:18:17.515Z,11.47
2022-11-08T07:20:45.182Z,11.43
2022-11-08T07:23:13.238Z,11.71
2022-11-08T07:25:40.818Z,12.13
2022-11-08T07:28:12.993Z,12.61
2022-11-08T07:30:40.481Z,12.80
2022-11-08T07:33:07.978Z,12.71
2022-11-08T07:35:35.401Z,13.16
2022-11-08T07:38:02.924Z,13.38
2022-11-08T07:40:30.663Z,13.54
2022-11-08T07:43:14.766Z,13.61
2022-11-08T07:45:43.903Z,13.70
2022-11-08T07:48:13.802Z,13.80
2022-11-08T07:50:42.765Z,13.99
2022-11-08T07:53:10.901Z,14.08
2022-11-08T07:55:40.543Z,14.31
2022-11-08T07:58:10.713Z,14.39
2022-11-08T08:00:40.534Z,14.40
2022-11-08T08:03:10.714Z,14.44
2022-11-08T08:05:40.977Z,14.27
2022-11-08T08:08:09.293Z,14.25
2022-11-08T08:10:37.203Z,14.13
2022-11-08T08:13:05.146Z,13.90
2022-11-08T08:15:33.030Z,13.98
2022-11-08T08:18:02.614Z,13.58
2022-11-08T08:20:32.308Z,13.61
2022-11-08T08:23:00.311Z,13.59
2022-11-08T08:25:31.057Z,13.84
2022-11-08T08:28:02.951Z,13.76
2022-11-08T08:30:31.568Z,13.81
2022-11-08T08:33:27.534Z,13.76
2022-11-08T08:35:55.502Z,14.12
2022-11-08T08:38:23.028Z,14.23
2022-11-08T08:40:51.359Z,14.21
2022-11-08T08:43:20.063Z,14.35
2022-11-08T08:45:48.825Z,14.45
2022-11-08T08:48:16.781Z,14.53
2022-11-08T08:50:44.310Z,14.40
2022-11-08T08:53:11.800Z,14.47
2022-11-08T08:55:41.821Z,14.63
2022-11-08T08:58:10.990Z,14.80
2022-11-08T09:03:25.893Z,14.43
2022-11-08T09:05:53.312Z,14.58
2022-11-08T09:08:20.777Z,14.70
2022-11-08T09:10:54.120Z,14.60
2022-11-08T09:13:22.401Z,14.80
2022-11-08T09:15:50.732Z,14.74
2022-11-08T09:18:18.760Z,14.73
2022-11-08T09:20:46.861Z,14.74
2022-11-08T09:23:17.759Z,14.55
2022-11-08T09:25:45.642Z,14.54
2022-11-08T09:28:13.072Z,14.57
2022-11-08T09:30:40.533Z,14.33
2022-11-08T09:33:08.077Z,14.35
2022-11-08T09:35:35.549Z,14.32
2022-11-08T09:38:03.106Z,14.26
2022-11-08T09:40:39.327Z,14.01
2022-11-08T09:43:16.282Z,14.04
2022-11-08T09:45:46.634Z,14.22
2022-11-08T09:48:35.462Z,14.43
2022-11-08T09:51:16.545Z,14.39
2022-11-08T09:53:58.220Z,14.45
2022-11-08T09:56:37.323Z,14.53
2022-11-08T09:59:11.588Z,14.58
2022-11-08T10:01:40.210Z,14.73
2022-11-08T10:04:19.440Z,14.66
2022-11-08T10:07:01.041Z,14.60
2022-11-08T10:09:43.766Z,14.72
2022-11-08T10:12:30.377Z,14.80
2022-11-08T10:15:11.191Z,14.79
2022-11-08T10:18:06.551Z,14.69
2022-11-08T10:21:02.832Z,14.72
2022-11-08T10:23:42.292Z,14.65
2022-11-08T10:26:16.511Z,14.60
2022-11-08T10:29:07.771Z,14.41
2022-11-08T10:31:38.401Z,14.53
2022-11-08T10:34:15.140Z,14.43
2022-11-08T10:36:47.233Z,14.55
2022-11-08T10:39:26.280Z,14.57
2022-11-08T10:42:06.280Z,14.39
2022-11-08T10:44:35.031Z,14.32
2022-11-08T10:47:05.989Z,14.37
2022-11-08T10:49:42.990Z,14.30
2022-11-08T10:52:18.511Z,14.37
2022-11-08T10:54:52.792Z,14.48
2022-11-08T10:57:25.942Z,14.51
2022-11-08T10:59:54.954Z,14.36
2022-11-08T11:02:22.360Z,14.45
2022-11-08T11:04:50.761Z,14.41
2022-11-08T11:07:36.222Z,14.60
2022-11-08T11:10:25.529Z,14.48
2022-11-08T11:13:03.213Z,14.53
2022-11-08T11:15:53.190Z,14.48
2022-11-08T11:18:29.499Z,14.47
2022-11-08T11:21:04.534Z,14.63
2022-11-08T11:23:45.360Z,14.40
2022-11-08T11:26:34.448Z,14.61
2022-11-08T11:29:04.939Z,14.51
2022-11-08T11:31:34.530Z,14.27
2022-11-08T11:34:17.482Z,14.39
2022-11-08T11:36:57.331Z,14.44
2022-11-08T11:39:35.647Z,14.45
2022-11-08T11:45:15.211Z,14.37
2022-11-08T11:48:03.649Z,14.47
2022-11-08T11:50:33.842Z,14.39
2022-11-08T11:53:06.046Z,14.29
2022-11-08T11:56:15.169Z,14.21
2022-11-08T11:58:45.380Z,14.23
2022-11-08T12:05:28.776Z,13.81
2022-11-08T12:08:17.588Z,13.83
2022-11-08T12:10:48.012Z,13.71
2022-11-08T12:13:18.713Z,13.75
2022-11-08T12:15:58.064Z,13.68
2022-11-08T12:19:19.013Z,13.59
2022-11-08T12:22:21.690Z,13.58
2022-11-08T12:25:07.198Z,13.57
2022-11-08T12:27:52.757Z,13.42
2022-11-08T12:30:26.302Z,13.33
2022-11-08T12:33:08.844Z,13.21
2022-11-08T12:35:48.575Z,13.31
2022-11-08T12:38:33.605Z,13.30
2022-11-08T12:41:23.551Z,13.28
2022-11-08T12:44:04.905Z,13.20
2022-11-08T12:46:55.213Z,13.29
2022-11-08T12:49:48.134Z,13.26
2022-11-08T12:52:40.282Z,13.20
2022-11-08T12:55:19.952Z,13.17
2022-11-08T12:57:47.981Z,12.95
2022-11-08T13:00:18.715Z,13.00
2022-11-08T13:02:56.062Z,12.96
2022-11-08T13:05:39.444Z,13.05
2022-11-08T13:08:20.425Z,13.11
2022-11-08T13:11:04.969Z,13.07
2022-11-08T13:13:53.202Z,13.13
2022-11-08T13:16:26.475Z,13.22
2022-11-08T13:18:59.345Z,13.28
2022-11-08T13:21:34.456Z,13.27
2022-11-08T13:24:06.635Z,13.22
2022-11-08T13:26:42.146Z,13.17
2022-11-08T13:29:27.369Z,13.06
2022-11-08T13:32:01.139Z,12.98
2022-11-08T13:34:34.324Z,12.89
2022-11-08T13:37:07.735Z,12.86
2022-11-08T13:39:54.245Z,12.85
2022-11-08T13:42:21.758Z,12.89
2022-11-08T13:44:55.175Z,12.82
2022-11-08T13:47:34.708Z,12.79
2022-11-08T13:50:33.962Z,12.79
2022-11-08T13:53:02.762Z,12.69
2022-11-08T13:55:42.251Z,12.60
2022-11-08T13:58:31.541Z,12.52
2022-11-08T14:00:59.983Z,12.32
2022-11-08T14:03:33.511Z,12.22
2022-11-08T14:06:06.696Z,12.16
2022-11-08T14:09:11.210Z,12.09
2022-11-08T14:12:01.007Z,12.04
2022-11-08T14:14:58.603Z,11.97
2022-11-08T14:17:31.212Z,11.98
2022-11-08T14:20:17.323Z,12.00
2022-11-08T14:22:49.976Z,11.93
2022-11-08T14:25:34.235Z,11.86
2022-11-08T14:28:01.973Z,11.86
2022-11-08T14:30:29.558Z,11.82
2022-11-08T14:33:18.196Z,11.77
2022-11-08T14:36:01.557Z,11.73
2022-11-08T14:38:32.488Z,11.76
2022-11-08T14:41:02.760Z,11.76
2022-11-08T14:43:31.388Z,11.66
2022-11-08T14:46:00.199Z,11.68
2022-11-08T14:48:30.421Z,11.69
2022-11-08T14:50:59.376Z,11.71
2022-11-08T14:53:47.380Z,11.65
2022-11-08T14:56:22.087Z,11.65
2022-11-08T14:58:51.798Z,11.61
2022-11-08T15:01:24.290Z,11.56
2022-11-08T15:04:02.698Z,11.47
2022-11-08T15:06:39.482Z,11.38
2022-11-08T15:09:08.589Z,11.33
2022-11-08T15:11:41.076Z,11.34
2022-11-08T15:14:16.897Z,11.24
2022-11-08T15:17:02.605Z,11.08
2022-11-08T15:19:45.109Z,11.07
2022-11-08T15:22:26.000Z,11.09
2022-11-08T15:25:09.053Z,10.97
2022-11-08T15:27:36.568Z,10.94
2022-11-08T15:30:09.338Z,10.94
2022-11-08T15:32:39.099Z,10.93
2022-11-08T15:35:19.115Z,10.94
2022-11-08T15:37:48.619Z,10.95
2022-11-08T15:40:30.707Z,10.99
2022-11-08T15:42:59.934Z,10.97
2022-11-08T15:45:32.373Z,10.93
2022-11-08T15:48:09.060Z,10.82
2022-11-08T15:50:36.898Z,10.74
2022-11-08T15:53:05.338Z,10.71
2022-11-08T15:55:47.039Z,10.67
2022-11-08T15:58:27.033Z,10.71
2022-11-08T16:00:55.447Z,10.67
2022-11-08T16:03:23.499Z,10.63
2022-11-08T16:05:51.049Z,10.64
2022-11-08T16:08:20.483Z,10.59
2022-11-08T16:10:53.978Z,10.70
2022-11-08T16:13:29.351Z,10.70
2022-11-08T16:15:58.801Z,10.75
2022-11-08T16:18:26.499Z,10.81
2022-11-08T16:20:54.119Z,10.88
2022-11-08T16:23:21.681Z,10.88
2022-11-08T16:25:57.802Z,10.88
2022-11-08T16:28:34.458Z,10.90
2022-11-08T16:31:03.968Z,10.85
2022-11-08T16:33:33.055Z,10.85
2022-11-08T16:36:12.731Z,10.91
2022-11-08T16:38:40.292Z,10.85
2022-11-08T16:41:07.749Z,10.81
2022-11-08T16:43:35.286Z,10.80
2022-11-08T16:46:07.165Z,10.79
2022-11-08T16:48:37.716Z,10.84
2022-11-08T16:51:08.040Z,10.80
2022-11-08T16:53:37.682Z,10.80
2022-11-08T16:56:05.292Z,10.89
2022-11-08T16:58:32.791Z,10.89
2022-11-08T17:01:00.549Z,10.86
2022-11-08T17:03:29.837Z,10.88
2022-11-08T17:05:58.000Z,10.79
2022-11-08T17:08:26.009Z,10.76
2022-11-08T17:10:54.671Z,10.84
2022-11-08T17:13:22.792Z,10.93
2022-11-08T17:15:51.063Z,10.99
2022-11-08T17:18:21.359Z,11.06
2022-11-08T17:20:49.506Z,11.08
2022-11-08T17:23:17.815Z,11.05
2022-11-08T17:25:45.411Z,11.11
2022-11-08T17:28:13.400Z,11.14
2022-11-08T17:30:46.950Z,11.13
2022-11-08T17:33:14.472Z,11.13
2022-11-08T17:35:44.249Z,11.17
2022-11-08T17:38:13.609Z,11.16
2022-11-08T17:40:42.572Z,11.12
2022-11-08T17:43:10.341Z,11.13
2022-11-08T17:45:37.769Z,11.15
2022-11-08T17:48:05.375Z,11.19
2022-11-08T17:50:32.750Z,11.26
2022-11-08T17:53:00.350Z,11.19
2022-11-08T17:55:27.779Z,11.24
2022-11-08T17:57:55.290Z,11.24
2022-11-08T18:00:22.752Z,11.29
2022-11-08T18:02:50.325Z,11.33
2022-11-08T18:05:17.722Z,11.31
2022-11-08T18:07:45.306Z,11.33
2022-11-08T18:10:12.811Z,11.35
2022-11-08T18:12:40.355Z,11.25
2022-11-08T18:15:08.839Z,11.30
2022-11-08T18:17:36.259Z,11.38
2022-11-08T18:20:03.865Z,11.47
2022-11-08T18:22:31.400Z,11.41
2022-11-08T18:24:58.867Z,11.40
2022-11-08T18:27:26.648Z,11.43
2022-11-08T18:29:54.171Z,11.43
2022-11-08T18:32:21.730Z,11.40
2022-11-08T18:34:49.200Z,11.40
2022-11-08T18:37:16.635Z,11.38
2022-11-08T18:39:44.080Z,11.47
2022-11-08T18:42:11.590Z,11.48
2022-11-08T18:44:39.098Z,11.53
2022-11-08T18:47:06.535Z,11.61
2022-11-08T18:49:34.006Z,11.62
2022-11-08T18:52:01.961Z,11.69
2022-11-08T18:54:29.448Z,11.72
2022-11-08T18:56:56.896Z,11.66
2022-11-08T18:59:24.351Z,11.69
2022-11-08T19:01:51.891Z,11.69
2022-11-08T19:04:19.289Z,11.65
2022-11-08T19:06:53.132Z,11.74
2022-11-08T19:09:22.368Z,11.74
2022-11-08T19:11:49.796Z,11.77
2022-11-08T19:14:17.251Z,11.76
2022-11-08T19:16:44.675Z,11.75
2022-11-08T19:19:12.319Z,11.74
2022-11-08T19:21:42.778Z,11.69
2022-11-08T19:24:11.158Z,11.63
2022-11-08T19:26:38.820Z,11.60
2022-11-08T19:29:06.849Z,11.59
2022-11-08T19:31:39.072Z,11.54
2022-11-08T19:34:06.550Z,11.50
2022-11-08T19:36:34.307Z,11.53
2022-11-08T19:39:01.749Z,11.48
2022-11-08T19:41:29.462Z,11.51
2022-11-08T19:43:57.371Z,11.50
2022-11-08T19:46:29.196Z,11.46
2022-11-08T19:48:59.070Z,11.52
2022-11-08T19:51:29.556Z,11.52
2022-11-08T19:54:05.249Z,11.48
2022-11-08T19:57:02.729Z,11.52
2022-11-08T19:59:21.110Z,11.51
2022-11-08T20:01:48.946Z,11.52
2022-11-08T20:04:18.586Z,11.51
2022-11-08T20:06:46.543Z,11.54
2022-11-08T20:09:14.250Z,11.57
2022-11-08T20:11:42.636Z,11.60
2022-11-08T20:14:12.592Z,11.55
2022-11-08T20:16:42.972Z,11.55
2022-11-08T20:19:16.656Z,11.56
2022-11-08T20:21:46.380Z,11.54
2022-11-08T20:24:14.760Z,11.65
2022-11-08T20:26:42.854Z,11.62
2022-11-08T20:29:10.651Z,11.69
2022-11-08T20:31:38.716Z,11.76
2022-11-08T20:34:10.287Z,11.77
2022-11-08T20:36:38.148Z,11.76
2022-11-08T20:39:07.624Z,11.75
2022-11-08T20:41:37.474Z,11.73
2022-11-08T20:44:06.627Z,11.64
2022-11-08T20:46:35.543Z,11.53
2022-11-08T20:49:04.348Z,11.53
2022-11-08T20:51:32.479Z,11.44
2022-11-08T20:54:01.209Z,11.40
2022-11-08T20:56:29.418Z,11.26
2022-11-08T20:58:57.238Z,11.28
2022-11-08T21:01:28.263Z,11.29
2022-11-08T21:03:56.496Z,11.25
2022-11-08T21:06:25.923Z,11.23
2022-11-08T21:08:59.866Z,11.26
2022-11-08T21:11:30.932Z,11.25
2022-11-08T21:13:58.522Z,11.18
2022-11-08T21:16:30.431Z,11.10
2022-11-08T21:18:59.740Z,11.07
2022-11-08T21:21:27.485Z,11.09
2022-11-08T21:23:55.158Z,11.07
2022-11-08T21:26:24.277Z,11.03
2022-11-08T21:28:52.453Z,11.01
2022-11-08T21:31:20.242Z,10.95
2022-11-08T21:33:47.829Z,10.97
2022-11-08T21:36:17.468Z,10.95
2022-11-08T21:38:45.511Z,10.94
2022-11-08T21:41:13.528Z,10.97
2022-11-08T21:43:43.459Z,10.96
2022-11-08T21:46:26.949Z,10.98
2022-11-08T21:48:59.597Z,11.00
2022-11-08T21:51:29.508Z,11.02
2022-11-08T21:53:58.620Z,10.98
2022-11-08T21:56:33.567Z,10.97
2022-11-08T21:59:02.259Z,10.94
2022-11-08T22:01:30.779Z,10.92
2022-11-08T22:03:59.949Z,10.91
2022-11-08T22:06:28.442Z,11.00
2022-11-08T22:08:56.078Z,10.97
2022-11-08T22:11:23.620Z,10.92
2022-11-08T22:13:51.550Z,11.04
2022-11-08T22:16:18.968Z,11.00
2022-11-08T22:21:43.282Z,11.04
2022-11-08T22:24:13.816Z,11.07
2022-11-08T22:26:41.782Z,11.02
2022-11-08T22:29:09.908Z,11.01
2022-11-08T22:31:38.199Z,10.99
2022-11-08T22:34:08.389Z,10.93
2022-11-08T22:36:41.444Z,10.95
2022-11-08T22:39:16.867Z,10.92
2022-11-08T22:41:46.089Z,10.95
2022-11-08T22:44:14.110Z,10.97
2022-11-08T22:46:42.721Z,10.96
2022-11-08T22:49:11.308Z,10.93
2022-11-08T22:51:40.134Z,10.93
2022-11-08T22:54:08.505Z,10.85
2022-11-08T22:56:36.823Z,10.79
2022-11-08T22:59:05.054Z,10.74
2022-11-08T23:01:32.919Z,10.66
2022-11-08T23:04:00.610Z,10.60
2022-11-08T23:06:28.306Z,10.66
2022-11-08T23:08:55.889Z,10.70
2022-11-08T23:11:41.910Z,10.68
2022-11-08T23:14:33.776Z,10.76
2022-11-08T23:17:05.899Z,10.79
2022-11-08T23:19:51.851Z,10.81
2022-11-08T23:22:38.084Z,10.82
2022-11-08T23:25:06.090Z,10.89
2022-11-08T23:27:52.160Z,10.89
2022-11-08T23:30:38.250Z,10.85
2022-11-08T23:33:09.240Z,10.85
2022-11-08T23:35:36.874Z,10.86
2022-11-08T23:38:04.325Z,10.85
2022-11-08T23:40:50.224Z,10.82
2022-11-08T23:43:37.814Z,10.80
2022-11-08T23:46:08.521Z,10.76
2022-11-08T23:48:37.409Z,10.75
2022-11-08T23:51:06.333Z,10.74
2022-11-08T23:53:36.858Z,10.71
2022-11-08T23:56:05.476Z,10.74
2022-11-08T23:58:33.484Z,10.74
